createdAt,value
2018-09-28T00:00:44.507Z,58.26
2018-09-28T00:03:15.298Z,58.76
2018-09-28T00:05:45.660Z,58.86
2018-09-28T00:08:16.155Z,58.22
2018-09-28T00:10:46.630Z,58.12
2018-09-28T00:13:17.120Z,57.61
2018-09-28T00:15:47.508Z,58.09
2018-09-28T00:18:17.742Z,58.68
2018-09-28T00:20:48.051Z,58.22
2018-09-28T00:23:19.035Z,59.07
2018-09-28T00:25:49.549Z,58.95
2018-09-28T00:28:19.987Z,59.32
2018-09-28T00:30:50.168Z,59.74
2018-09-28T00:33:20.561Z,59.57
2018-09-28T00:35:51.084Z,60.19
2018-09-28T00:38:21.375Z,60.22
2018-09-28T00:40:51.703Z,60.35
2018-09-28T00:43:22.150Z,60.52
2018-09-28T00:45:52.588Z,59.83
2018-09-28T00:48:23.019Z,59.89
2018-09-28T00:50:53.191Z,60.02
2018-09-28T00:53:23.793Z,60.42
2018-09-28T00:55:54.416Z,60.07
2018-09-28T00:58:24.742Z,60.81
2018-09-28T01:00:55.112Z,60.76
2018-09-28T01:03:25.535Z,61.30
2018-09-28T01:05:55.907Z,61.54
2018-09-28T01:08:26.385Z,62.04
2018-09-28T01:10:56.795Z,61.23
2018-09-28T01:13:27.250Z,61.96
2018-09-28T01:15:57.634Z,61.11
2018-09-28T01:18:28.001Z,61.44
2018-09-28T01:20:58.488Z,61.42
2018-09-28T01:23:29.092Z,62.10
2018-09-28T01:25:59.581Z,61.90
2018-09-28T01:28:29.939Z,61.95
2018-09-28T01:31:00.377Z,61.98
2018-09-28T01:33:30.787Z,61.99
2018-09-28T01:36:01.259Z,61.70
2018-09-28T01:38:31.752Z,61.64
2018-09-28T01:41:02.348Z,61.92
2018-09-28T01:43:33.380Z,62.45
2018-09-28T01:46:03.617Z,62.20
2018-09-28T01:48:34.003Z,62.14
2018-09-28T01:51:04.411Z,62.50
2018-09-28T01:53:34.872Z,62.69
2018-09-28T01:56:05.344Z,62.16
2018-09-28T01:58:35.820Z,62.02
2018-09-28T02:01:06.251Z,62.08
2018-09-28T02:03:36.641Z,62.66
2018-09-28T02:06:07.157Z,62.25
2018-09-28T02:08:37.902Z,62.65
2018-09-28T02:11:08.320Z,62.96
2018-09-28T02:13:38.792Z,63.05
2018-09-28T02:16:09.325Z,63.43
2018-09-28T02:18:39.738Z,63.67
2018-09-28T02:21:10.138Z,64.01
2018-09-28T02:23:40.629Z,63.81
2018-09-28T02:26:11.211Z,64.28
2018-09-28T02:28:42.181Z,64.28
2018-09-28T02:31:12.510Z,65.32
2018-09-28T02:33:42.895Z,65.26
2018-09-28T02:36:13.237Z,65.13
2018-09-28T02:38:43.633Z,65.21
2018-09-28T02:41:14.120Z,65.40
2018-09-28T02:43:44.608Z,65.46
2018-09-28T02:46:15.106Z,65.05
2018-09-28T02:48:45.447Z,64.52
2018-09-28T02:51:15.869Z,64.69
2018-09-28T02:53:46.305Z,63.85
2018-09-28T02:56:16.699Z,64.46
2018-09-28T02:58:47.070Z,65.03
2018-09-28T03:01:17.323Z,65.12
2018-09-28T03:03:47.822Z,65.25
2018-09-28T03:06:18.293Z,65.04
2018-09-28T03:08:48.612Z,66.15
2018-09-28T03:11:19.197Z,65.71
2018-09-28T03:13:49.664Z,66.51
2018-09-28T03:16:20.019Z,68.00
2018-09-28T03:18:50.496Z,68.61
2018-09-28T03:21:20.823Z,69.09
2018-09-28T03:23:51.140Z,69.62
2018-09-28T03:26:21.435Z,70.16
2018-09-28T03:28:51.799Z,70.14
2018-09-28T03:31:22.296Z,70.46
2018-09-28T03:33:52.704Z,71.01
2018-09-28T03:36:22.947Z,70.64
2018-09-28T03:38:53.430Z,71.11
2018-09-28T03:41:23.759Z,72.27
2018-09-28T03:43:54.220Z,72.26
2018-09-28T03:46:24.720Z,72.61
2018-09-28T03:48:54.952Z,73.10
2018-09-28T03:51:25.422Z,73.12
2018-09-28T03:53:55.951Z,73.41
2018-09-28T03:56:26.461Z,73.56
2018-09-28T03:58:57.057Z,74.02
2018-09-28T04:01:27.365Z,73.89
2018-09-28T04:03:57.865Z,74.03
2018-09-28T04:06:28.420Z,73.63
2018-09-28T04:08:58.932Z,73.66
2018-09-28T04:11:29.321Z,74.13
2018-09-28T04:13:59.644Z,74.63
2018-09-28T04:16:30.184Z,74.98
2018-09-28T04:19:00.809Z,74.88
2018-09-28T04:21:31.291Z,74.64
2018-09-28T04:24:01.991Z,75.29
2018-09-28T04:26:32.951Z,75.60
2018-09-28T04:29:03.395Z,75.76
2018-09-28T04:31:33.831Z,76.07
2018-09-28T04:34:04.392Z,75.30
2018-09-28T04:36:35.590Z,75.84
2018-09-28T04:39:13.436Z,76.41
2018-09-28T04:41:49.935Z,76.45
2018-09-28T04:44:28.096Z,76.31
2018-09-28T04:46:58.743Z,76.99
2018-09-28T04:49:29.720Z,76.74
2018-09-28T04:52:00.220Z,76.65
2018-09-28T04:54:30.519Z,77.52
2018-09-28T04:57:00.948Z,77.40
2018-09-28T04:59:31.532Z,77.40
2018-09-28T05:02:02.163Z,77.36
2018-09-28T05:04:32.800Z,78.03
2018-09-28T05:07:03.384Z,77.76
2018-09-28T05:09:33.625Z,77.76
2018-09-28T05:12:04.161Z,77.91
2018-09-28T05:14:34.726Z,77.59
2018-09-28T05:17:05.869Z,77.71
2018-09-28T05:19:36.459Z,78.42
2018-09-28T05:22:06.835Z,78.30
2018-09-28T05:24:37.509Z,78.17
2018-09-28T05:27:08.252Z,78.34
2018-09-28T05:29:38.893Z,78.15
2018-09-28T05:32:09.403Z,77.71
2018-09-28T05:34:39.975Z,76.51
2018-09-28T05:37:10.430Z,76.47
2018-09-28T05:39:40.983Z,76.24
2018-09-28T05:42:11.412Z,75.67
2018-09-28T05:44:41.918Z,75.64
2018-09-28T05:47:12.317Z,75.02
2018-09-28T05:49:42.710Z,73.91
2018-09-28T05:52:13.207Z,74.03
2018-09-28T05:54:43.552Z,73.88
2018-09-28T05:57:14.075Z,73.72
2018-09-28T05:59:49.432Z,73.51
2018-09-28T06:02:24.914Z,73.08
2018-09-28T06:05:00.227Z,71.78
2018-09-28T06:07:30.595Z,71.66
2018-09-28T06:10:00.952Z,70.69
2018-09-28T06:12:31.212Z,70.81
2018-09-28T06:15:01.472Z,69.48
2018-09-28T06:17:32.042Z,69.42
2018-09-28T06:20:02.700Z,69.11
2018-09-28T06:22:33.140Z,68.08
2018-09-28T06:25:03.535Z,67.21
2018-09-28T06:27:33.990Z,66.94
2018-09-28T06:30:04.528Z,64.91
2018-09-28T06:32:34.891Z,63.25
2018-09-28T06:35:05.566Z,61.29
2018-09-28T06:37:36.050Z,59.75
2018-09-28T06:40:06.513Z,56.90
2018-09-28T06:42:37.008Z,57.46
2018-09-28T06:45:07.605Z,58.66
2018-09-28T06:47:38.191Z,58.88
2018-09-28T06:50:09.184Z,60.35
2018-09-28T06:52:39.536Z,60.53
2018-09-28T06:55:10.020Z,61.25
2018-09-28T06:57:40.418Z,60.09
2018-09-28T07:00:10.877Z,60.70
2018-09-28T07:02:41.347Z,60.95
2018-09-28T07:05:16.980Z,59.74
2018-09-28T07:07:47.335Z,60.21
2018-09-28T07:10:17.979Z,60.05
2018-09-28T07:12:48.448Z,59.69
2018-09-28T07:15:19.028Z,59.04
2018-09-28T07:17:49.460Z,59.93
2018-09-28T07:20:19.852Z,59.86
2018-09-28T07:22:50.360Z,59.08
2018-09-28T07:25:20.809Z,60.10
2018-09-28T07:27:51.289Z,59.33
2018-09-28T07:30:21.804Z,58.49
2018-09-28T07:32:52.157Z,58.65
2018-09-28T07:35:23.427Z,58.92
2018-09-28T07:38:08.283Z,58.85
2018-09-28T07:40:38.648Z,58.74
2018-09-28T07:43:09.000Z,60.06
2018-09-28T07:45:39.402Z,59.73
2018-09-28T07:48:09.750Z,57.88
2018-09-28T07:50:40.688Z,57.56
2018-09-28T07:53:11.099Z,57.69
2018-09-28T07:55:41.474Z,58.96
2018-09-28T07:58:11.734Z,58.18
2018-09-28T08:00:42.087Z,58.48
2018-09-28T08:03:12.483Z,58.58
2018-09-28T08:05:43.079Z,58.40
2018-09-28T08:08:14.040Z,58.18
2018-09-28T08:10:44.400Z,58.12
2018-09-28T08:13:14.691Z,57.54
2018-09-28T08:15:45.076Z,57.94
2018-09-28T08:18:21.037Z,57.90
2018-09-28T08:20:51.547Z,58.01
2018-09-28T08:23:21.884Z,57.71
2018-09-28T08:25:52.372Z,55.96
2018-09-28T08:28:22.867Z,56.11
2018-09-28T08:30:53.181Z,55.91
2018-09-28T08:33:23.578Z,54.76
2018-09-28T08:35:53.971Z,53.46
2018-09-28T08:38:24.372Z,53.86
2018-09-28T08:40:54.603Z,52.92
2018-09-28T08:43:24.931Z,52.28
2018-09-28T08:45:55.287Z,52.59
2018-09-28T08:48:25.688Z,51.91
2018-09-28T08:50:56.254Z,50.98
2018-09-28T08:53:26.623Z,50.55
2018-09-28T08:55:57.041Z,50.25
2018-09-28T08:58:27.401Z,50.30
2018-09-28T09:00:58.116Z,49.98
2018-09-28T09:03:28.537Z,48.86
2018-09-28T09:05:58.966Z,48.80
2018-09-28T09:08:29.312Z,49.01
2018-09-28T09:10:59.572Z,49.37
2018-09-28T09:13:30.035Z,48.73
2018-09-28T09:16:00.635Z,48.87
2018-09-28T09:18:31.040Z,47.62
2018-09-28T09:21:01.312Z,47.25
2018-09-28T09:23:31.590Z,46.21
2018-09-28T09:26:01.957Z,46.11
2018-09-28T09:28:32.347Z,45.29
2018-09-28T09:31:02.632Z,44.28
2018-09-28T09:33:32.979Z,45.32
2018-09-28T09:36:03.461Z,43.77
2018-09-28T09:38:33.784Z,42.91
2018-09-28T09:41:04.230Z,41.32
2018-09-28T09:43:34.487Z,42.12
2018-09-28T09:46:04.988Z,42.51
2018-09-28T09:48:35.273Z,42.59
2018-09-28T09:51:05.775Z,42.17
2018-09-28T09:53:36.165Z,42.10
2018-09-28T09:56:06.588Z,41.62
2018-09-28T09:58:36.811Z,40.69
2018-09-28T10:01:08.479Z,42.27
2018-09-28T10:03:43.622Z,41.40
2018-09-28T10:06:14.201Z,40.61
2018-09-28T10:08:44.436Z,40.60
2018-09-28T10:11:14.918Z,41.30
2018-09-28T10:13:45.292Z,41.76
2018-09-28T10:16:15.680Z,41.16
2018-09-28T10:18:45.875Z,40.91
2018-09-28T10:21:16.394Z,40.17
2018-09-28T10:23:46.835Z,39.38
2018-09-28T10:26:17.383Z,38.74
2018-09-28T10:28:47.799Z,37.81
2018-09-28T10:31:18.143Z,39.38
2018-09-28T10:33:48.371Z,38.83
2018-09-28T10:36:18.709Z,38.21
2018-09-28T10:38:49.120Z,38.85
2018-09-28T10:41:19.522Z,38.27
2018-09-28T10:43:49.865Z,37.33
2018-09-28T10:46:20.249Z,36.95
2018-09-28T10:48:50.637Z,36.60
2018-09-28T10:51:21.055Z,35.69
2018-09-28T10:53:51.375Z,35.98
2018-09-28T10:56:21.883Z,37.06
2018-09-28T10:58:52.318Z,37.10
2018-09-28T11:01:22.855Z,36.42
2018-09-28T11:03:53.076Z,36.88
2018-09-28T11:06:23.459Z,36.73
2018-09-28T11:08:53.832Z,35.64
2018-09-28T11:11:24.340Z,33.82
2018-09-28T11:13:54.512Z,34.27
2018-09-28T11:16:25.016Z,32.99
2018-09-28T11:18:55.489Z,33.89
2018-09-28T11:21:26.198Z,34.78
2018-09-28T11:23:56.531Z,33.53
2018-09-28T11:26:27.636Z,34.13
2018-09-28T11:28:58.201Z,32.66
2018-09-28T11:31:28.612Z,33.45
2018-09-28T11:33:58.874Z,36.23
2018-09-28T11:36:29.431Z,36.38
2018-09-28T11:38:59.767Z,36.54
2018-09-28T11:41:30.246Z,36.90
2018-09-28T11:44:01.423Z,36.76
2018-09-28T11:46:31.804Z,36.24
2018-09-28T11:49:02.380Z,36.87
2018-09-28T11:51:33.050Z,37.61
2018-09-28T11:54:03.349Z,37.82
2018-09-28T11:56:35.927Z,36.89
2018-09-28T11:59:06.270Z,38.52
2018-09-28T12:01:36.744Z,38.08
2018-09-28T12:04:07.440Z,37.27
2018-09-28T12:06:37.926Z,37.13
2018-09-28T12:09:12.510Z,36.88
2018-09-28T12:11:43.501Z,38.62
2018-09-28T12:14:13.855Z,38.75
2018-09-28T12:16:51.092Z,36.85
2018-09-28T12:19:29.542Z,38.15
2018-09-28T12:22:00.015Z,37.25
2018-09-28T12:24:30.325Z,35.29
2018-09-28T12:27:00.732Z,35.74
2018-09-28T12:29:31.346Z,36.66
2018-09-28T12:32:01.904Z,36.69
2018-09-28T12:34:32.359Z,38.50
2018-09-28T12:37:02.718Z,39.04
2018-09-28T12:39:33.202Z,37.56
2018-09-28T12:42:04.492Z,38.07
2018-09-28T12:44:35.655Z,37.78
2018-09-28T12:47:06.228Z,37.31
2018-09-28T12:49:36.684Z,37.17
2018-09-28T12:52:07.398Z,37.81
2018-09-28T12:54:37.999Z,36.70
2018-09-28T12:57:09.048Z,38.12
2018-09-28T12:59:39.442Z,38.33
2018-09-28T13:02:09.862Z,36.71
2018-09-28T13:04:40.703Z,36.60
2018-09-28T13:07:11.168Z,38.04
2018-09-28T13:09:41.575Z,38.03
2018-09-28T13:12:12.165Z,37.75
2018-09-28T13:14:42.660Z,37.59
2018-09-28T13:17:13.129Z,37.95
2018-09-28T13:19:43.388Z,37.31
2018-09-28T13:22:13.893Z,37.93
2018-09-28T13:24:44.338Z,36.30
2018-09-28T13:27:14.825Z,36.19
2018-09-28T13:29:45.328Z,37.51
2018-09-28T13:32:15.645Z,36.54
2018-09-28T13:34:46.056Z,38.05
2018-09-28T13:37:16.349Z,36.55
2018-09-28T13:39:46.835Z,36.07
2018-09-28T13:42:17.129Z,36.39
2018-09-28T13:44:47.564Z,36.30
2018-09-28T13:47:17.980Z,36.71
2018-09-28T13:49:48.360Z,36.52
2018-09-28T13:52:18.998Z,35.88
2018-09-28T13:54:49.390Z,36.12
2018-09-28T13:57:19.682Z,36.50
2018-09-28T13:59:49.975Z,36.47
2018-09-28T14:02:20.249Z,37.02
2018-09-28T14:04:50.678Z,37.58
2018-09-28T14:07:20.968Z,37.56
2018-09-28T14:09:51.335Z,37.47
2018-09-28T14:12:21.744Z,37.17
2018-09-28T14:14:52.019Z,36.13
2018-09-28T14:17:22.530Z,35.19
2018-09-28T14:19:53.019Z,35.49
2018-09-28T14:22:23.371Z,35.28
2018-09-28T14:24:54.608Z,35.76
2018-09-28T14:27:24.956Z,36.68
2018-09-28T14:29:55.724Z,37.21
2018-09-28T14:32:26.050Z,38.01
2018-09-28T14:34:56.464Z,38.10
2018-09-28T14:37:27.004Z,38.87
2018-09-28T14:39:57.396Z,39.14
2018-09-28T14:42:27.672Z,38.96
2018-09-28T14:44:58.013Z,39.32
2018-09-28T14:47:28.529Z,40.15
2018-09-28T14:49:58.900Z,41.43
2018-09-28T14:52:29.166Z,42.30
2018-09-28T14:54:59.617Z,42.09
2018-09-28T14:57:29.995Z,41.36
2018-09-28T15:00:00.348Z,41.94
2018-09-28T15:02:30.948Z,41.51
2018-09-28T15:05:01.160Z,42.40
2018-09-28T15:07:31.708Z,42.59
2018-09-28T15:10:02.535Z,42.23
2018-09-28T15:12:33.038Z,42.48
2018-09-28T15:15:03.717Z,42.72
2018-09-28T15:17:34.203Z,42.81
2018-09-28T15:20:04.536Z,43.90
2018-09-28T15:22:35.040Z,44.54
2018-09-28T15:25:05.600Z,44.56
2018-09-28T15:27:36.106Z,44.53
2018-09-28T15:30:07.605Z,45.36
2018-09-28T15:32:38.190Z,45.08
2018-09-28T15:35:08.620Z,45.35
2018-09-28T15:37:39.300Z,45.47
2018-09-28T15:40:09.672Z,44.90
2018-09-28T15:42:39.927Z,44.28
2018-09-28T15:45:10.443Z,45.06
2018-09-28T15:47:40.806Z,45.62
2018-09-28T15:50:11.384Z,44.58
2018-09-28T15:52:41.839Z,45.15
2018-09-28T15:55:12.134Z,45.87
2018-09-28T15:57:42.574Z,45.78
2018-09-28T16:00:13.200Z,45.12
2018-09-28T16:02:43.725Z,44.67
2018-09-28T16:05:14.875Z,45.20
2018-09-28T16:07:45.330Z,45.99
2018-09-28T16:10:15.718Z,45.83
2018-09-28T16:12:45.972Z,46.54
2018-09-28T16:15:16.430Z,47.31
2018-09-28T16:17:46.871Z,46.72
2018-09-28T16:20:17.429Z,47.58
2018-09-28T16:22:47.828Z,48.25
2018-09-28T16:25:18.068Z,49.11
2018-09-28T16:27:48.437Z,49.03
2018-09-28T16:30:19.077Z,49.04
2018-09-28T16:32:49.426Z,50.07
2018-09-28T16:35:19.770Z,50.08
2018-09-28T16:37:50.056Z,50.38
2018-09-28T16:40:20.580Z,50.22
2018-09-28T16:42:51.083Z,50.73
2018-09-28T16:45:21.582Z,50.94
2018-09-28T16:47:51.905Z,50.76
2018-09-28T16:50:22.453Z,50.04
2018-09-28T16:52:52.947Z,50.30
2018-09-28T16:55:24.024Z,51.22
2018-09-28T16:57:54.488Z,51.66
2018-09-28T17:00:24.792Z,51.45
2018-09-28T17:02:55.216Z,52.05
2018-09-28T17:05:25.599Z,51.91
2018-09-28T17:07:56.109Z,52.33
2018-09-28T17:10:26.747Z,52.13
2018-09-28T17:12:57.140Z,52.03
2018-09-28T17:15:27.531Z,51.68
2018-09-28T17:17:57.889Z,52.27
2018-09-28T17:20:28.281Z,52.57
2018-09-28T17:22:58.623Z,51.71
2018-09-28T17:25:29.120Z,52.09
2018-09-28T17:27:59.432Z,52.25
2018-09-28T17:30:29.874Z,52.00
2018-09-28T17:33:00.386Z,52.34
2018-09-28T17:35:31.595Z,51.54
2018-09-28T17:38:02.066Z,52.35
2018-09-28T17:40:32.620Z,51.75
2018-09-28T17:43:03.306Z,51.01
2018-09-28T17:45:33.912Z,51.21
2018-09-28T17:48:04.404Z,51.56
2018-09-28T17:50:34.861Z,51.27
2018-09-28T17:53:05.412Z,51.20
2018-09-28T17:55:35.712Z,51.68
2018-09-28T17:58:06.120Z,51.43
2018-09-28T18:00:36.551Z,51.56
2018-09-28T18:03:07.063Z,52.12
2018-09-28T18:05:37.381Z,52.26
2018-09-28T18:08:07.976Z,52.79
2018-09-28T18:10:38.426Z,52.71
2018-09-28T18:13:09.796Z,53.48
2018-09-28T18:15:40.331Z,53.21
2018-09-28T18:18:10.771Z,53.32
2018-09-28T18:20:41.143Z,54.48
2018-09-28T18:23:11.322Z,53.83
2018-09-28T18:25:41.692Z,54.46
2018-09-28T18:28:19.779Z,53.63
2018-09-28T18:30:58.668Z,53.37
2018-09-28T18:33:37.210Z,52.96
2018-09-28T18:36:17.690Z,52.61
2018-09-28T18:38:57.716Z,53.01
2018-09-28T18:41:37.253Z,52.98
2018-09-28T18:44:08.012Z,52.95
2018-09-28T18:46:38.607Z,52.47
2018-09-28T18:49:09.207Z,52.21
2018-09-28T18:51:39.815Z,52.02
2018-09-28T18:54:10.028Z,52.83
2018-09-28T18:56:40.439Z,53.19
2018-09-28T18:59:10.868Z,53.07
2018-09-28T19:01:41.229Z,53.44
2018-09-28T19:04:11.572Z,53.71
2018-09-28T19:06:41.858Z,53.98
2018-09-28T19:09:12.891Z,54.75
2018-09-28T19:11:44.044Z,54.86
2018-09-28T19:14:14.559Z,55.25
2018-09-28T19:16:44.784Z,55.80
2018-09-28T19:19:15.299Z,55.36
2018-09-28T19:21:45.759Z,56.33
2018-09-28T19:24:16.176Z,56.51
2018-09-28T19:26:46.665Z,57.21
2018-09-28T19:29:16.999Z,57.46
2018-09-28T19:31:47.403Z,57.82
2018-09-28T19:34:17.787Z,57.64
2018-09-28T19:36:48.272Z,58.30
2018-09-28T19:39:19.095Z,58.78
2018-09-28T19:41:49.458Z,59.36
2018-09-28T19:44:32.362Z,59.58
2018-09-28T19:47:02.678Z,59.81
2018-09-28T19:49:33.241Z,60.47
2018-09-28T19:52:03.563Z,61.09
2018-09-28T19:54:34.007Z,60.97
2018-09-28T19:57:04.419Z,61.37
2018-09-28T19:59:34.670Z,61.54
2018-09-28T20:02:05.072Z,61.69
2018-09-28T20:04:35.607Z,61.61
2018-09-28T20:07:06.236Z,61.25
2018-09-28T20:09:36.595Z,62.27
2018-09-28T20:12:07.371Z,61.80
2018-09-28T20:14:38.067Z,61.64
2018-09-28T20:17:08.676Z,62.47
2018-09-28T20:19:39.110Z,62.77
2018-09-28T20:22:12.992Z,62.56
2018-09-28T20:24:43.389Z,63.00
2018-09-28T20:27:13.855Z,63.17
2018-09-28T20:29:44.350Z,63.75
2018-09-28T20:32:14.742Z,63.48
2018-09-28T20:34:45.112Z,63.91
2018-09-28T20:37:15.363Z,63.67
2018-09-28T20:39:45.860Z,64.75
2018-09-28T20:42:16.312Z,64.75
2018-09-28T20:44:46.999Z,65.11
2018-09-28T20:47:17.328Z,64.79
2018-09-28T20:49:47.680Z,65.28
2018-09-28T20:52:17.696Z,65.24
2018-09-28T20:54:47.731Z,65.44
2018-09-28T21:00:17.336Z,65.81
2018-09-28T21:02:47.540Z,66.42
2018-09-28T21:05:18.004Z,66.35
2018-09-28T21:07:48.383Z,66.37
2018-09-28T21:10:18.765Z,66.63
2018-09-28T21:12:49.191Z,67.20
2018-09-28T21:15:19.499Z,67.04
2018-09-28T21:17:49.713Z,67.16
2018-09-28T21:20:20.287Z,67.33
2018-09-28T21:22:50.674Z,67.30
2018-09-28T21:25:20.895Z,67.85
2018-09-28T21:27:52.156Z,67.92
2018-09-28T21:30:22.393Z,68.17
2018-09-28T21:32:52.672Z,68.06
2018-09-28T21:35:23.263Z,68.24
2018-09-28T21:37:53.573Z,68.43
2018-09-28T21:40:23.928Z,68.54
2018-09-28T21:42:54.292Z,68.18
2018-09-28T21:45:24.786Z,68.44
2018-09-28T21:47:55.212Z,69.10
2018-09-28T21:50:25.560Z,68.85
2018-09-28T21:52:55.917Z,69.26
2018-09-28T21:55:26.263Z,69.09
2018-09-28T21:57:56.679Z,69.09
2018-09-28T22:00:27.156Z,69.36
2018-09-28T22:02:57.865Z,69.59
2018-09-28T22:05:28.532Z,69.38
2018-09-28T22:07:58.712Z,69.67
2018-09-28T22:10:29.124Z,69.80
2018-09-28T22:12:59.388Z,70.51
2018-09-28T22:15:29.768Z,70.29
2018-09-28T22:18:00.275Z,70.03
2018-09-28T22:20:30.800Z,70.64
2018-09-28T22:23:01.819Z,70.51
2018-09-28T22:25:32.295Z,70.57
2018-09-28T22:28:02.771Z,70.71
2018-09-28T22:30:33.273Z,70.91
2018-09-28T22:33:03.752Z,70.75
2018-09-28T22:35:34.125Z,71.18
2018-09-28T22:38:04.497Z,71.17
2018-09-28T22:40:34.973Z,71.20
2018-09-28T22:43:05.476Z,71.50
2018-09-28T22:45:36.061Z,71.08
2018-09-28T22:48:06.639Z,71.30
2018-09-28T22:50:36.985Z,71.45
2018-09-28T22:53:07.328Z,71.82
2018-09-28T22:55:37.744Z,71.62
2018-09-28T22:58:08.161Z,72.07
2018-09-28T23:00:38.855Z,71.66
2018-09-28T23:03:09.535Z,72.29
2018-09-28T23:05:39.940Z,71.72
2018-09-28T23:08:10.392Z,72.27
2018-09-28T23:10:40.962Z,72.58
2018-09-28T23:13:11.426Z,72.05
2018-09-28T23:15:41.929Z,72.31
2018-09-28T23:18:12.239Z,72.98
2018-09-28T23:20:42.679Z,72.78
2018-09-28T23:23:13.073Z,72.98
2018-09-28T23:25:43.627Z,72.34
2018-09-28T23:28:14.020Z,72.25
2018-09-28T23:30:44.389Z,73.36
2018-09-28T23:33:14.699Z,72.76
2018-09-28T23:35:45.007Z,73.18
2018-09-28T23:38:15.372Z,73.51
2018-09-28T23:40:45.797Z,72.85
2018-09-28T23:43:16.096Z,73.19
2018-09-28T23:45:46.576Z,73.47
2018-09-28T23:48:16.875Z,73.71
2018-09-28T23:50:47.243Z,73.42
2018-09-28T23:53:17.408Z,73.48
2018-09-28T23:55:47.675Z,73.94
2018-09-28T23:58:18.106Z,73.60
